createdAt,value
2022-09-28T00:02:23.323Z,99453.47
2022-09-28T00:04:49.803Z,99437.72
2022-09-28T00:07:16.202Z,99439.38
2022-09-28T00:09:43.181Z,99442.22
2022-09-28T00:12:09.628Z,99438.50
2022-09-28T00:14:37.034Z,99442.38
2022-09-28T00:17:03.514Z,99438.06
2022-09-28T00:19:29.880Z,99437.63
2022-09-28T00:21:56.270Z,99432.75
2022-09-28T00:24:27.334Z,99438.47
2022-09-28T00:26:56.051Z,99396.84
2022-09-28T00:29:34.550Z,99415.03
2022-09-28T00:32:11.749Z,99435.63
2022-09-28T00:34:45.927Z,99448.91
2022-09-28T00:37:14.031Z,99444.19
2022-09-28T00:39:44.354Z,99442.56
2022-09-28T00:42:14.493Z,99447.66
2022-09-28T00:44:47.834Z,99438.25
2022-09-28T00:47:35.433Z,99403.44
2022-09-28T00:50:20.382Z,99432.00
2022-09-28T00:52:53.245Z,99423.00
2022-09-28T00:55:27.831Z,99409.34
2022-09-28T00:57:58.274Z,99416.47
2022-09-28T01:00:24.901Z,99434.63
2022-09-28T01:02:51.574Z,99427.25
2022-09-28T01:05:20.783Z,99439.69
2022-09-28T01:07:47.791Z,99429.47
2022-09-28T01:10:14.874Z,99424.53
2022-09-28T01:12:41.249Z,99425.38
2022-09-28T01:15:08.161Z,99427.44
2022-09-28T01:18:11.526Z,99447.66
2022-09-28T01:20:51.175Z,99438.41
2022-09-28T01:23:42.874Z,99431.91
2022-09-28T01:26:34.405Z,99438.84
2022-09-28T01:29:42.151Z,99438.41
2022-09-28T01:32:23.469Z,99433.53
2022-09-28T01:34:58.686Z,99447.88
2022-09-28T01:37:35.449Z,99414.59
2022-09-28T01:40:05.438Z,99461.16
2022-09-28T01:42:36.130Z,99478.53
2022-09-28T01:45:10.512Z,99488.56
2022-09-28T01:47:39.883Z,99447.88
2022-09-28T01:50:16.699Z,99442.22
2022-09-28T01:52:50.069Z,99446.91
2022-09-28T01:55:39.272Z,99426.91
2022-09-28T01:58:23.193Z,99448.31
2022-09-28T02:00:57.118Z,99426.81
2022-09-28T02:03:42.953Z,99419.91
2022-09-28T02:06:18.506Z,99439.13
2022-09-28T02:08:56.076Z,99440.78
2022-09-28T02:11:23.149Z,99453.91
2022-09-28T02:14:10.900Z,99429.63
2022-09-28T02:16:41.263Z,99426.53
2022-09-28T02:19:13.942Z,99424.31
2022-09-28T02:21:47.551Z,99439.19
2022-09-28T02:24:21.400Z,99443.03
2022-09-28T02:26:50.968Z,99421.00
2022-09-28T02:29:17.625Z,99437.75
2022-09-28T02:31:44.216Z,99442.84
2022-09-28T02:34:10.684Z,99440.19
2022-09-28T02:36:37.211Z,99445.31
2022-09-28T02:39:03.655Z,99446.13
2022-09-28T02:41:48.056Z,99433.06
2022-09-28T02:44:36.212Z,99450.44
2022-09-28T02:47:02.602Z,99469.44
2022-09-28T02:50:05.375Z,99470.69
2022-09-28T02:52:50.114Z,99474.94
2022-09-28T02:55:31.846Z,99475.56
2022-09-28T02:58:24.162Z,99470.25
2022-09-28T03:01:01.322Z,99466.00
2022-09-28T03:03:37.713Z,99468.44
2022-09-28T03:06:29.325Z,99466.03
2022-09-28T03:09:14.129Z,99447.66
2022-09-28T03:11:55.846Z,99451.72
2022-09-28T03:14:22.421Z,99461.75
2022-09-28T03:16:48.823Z,99443.78
2022-09-28T03:19:19.901Z,99455.00
2022-09-28T03:21:46.284Z,99444.38
2022-09-28T03:24:13.086Z,99438.47
2022-09-28T03:26:39.631Z,99436.59
2022-09-28T03:29:06.277Z,99434.72
2022-09-28T03:31:32.785Z,99435.56
2022-09-28T03:33:59.231Z,99436.78
2022-09-28T03:36:25.678Z,99443.75
2022-09-28T03:38:55.493Z,99435.81
2022-09-28T03:41:23.550Z,99432.13
2022-09-28T03:43:50.071Z,99430.50
2022-09-28T03:46:16.519Z,99431.13
2022-09-28T03:48:42.943Z,99440.13
2022-09-28T03:51:11.979Z,99445.44
2022-09-28T03:53:39.868Z,99445.00
2022-09-28T03:56:10.922Z,99438.28
2022-09-28T03:58:37.832Z,99446.66
2022-09-28T04:01:06.899Z,99448.06
2022-09-28T04:03:33.621Z,99450.91
2022-09-28T04:06:00.529Z,99447.63
2022-09-28T04:08:27.135Z,99448.69
2022-09-28T04:10:57.747Z,99447.22
2022-09-28T04:13:25.014Z,99451.78
2022-09-28T04:15:59.387Z,99465.09
2022-09-28T04:18:26.055Z,99466.69
2022-09-28T04:21:10.789Z,99478.53
2022-09-28T04:23:39.570Z,99480.16
2022-09-28T04:26:07.729Z,99490.19
2022-09-28T04:28:53.159Z,99483.00
2022-09-28T04:31:22.621Z,99482.38
2022-09-28T04:33:49.242Z,99472.56
2022-09-28T04:36:15.666Z,99470.31
2022-09-28T04:38:52.751Z,99465.22
2022-09-28T04:41:20.031Z,99462.97
2022-09-28T04:43:47.528Z,99465.63
2022-09-28T04:46:14.737Z,99465.44
2022-09-28T04:48:41.202Z,99450.47
2022-09-28T04:51:07.770Z,99443.09
2022-09-28T04:53:35.080Z,99441.06
2022-09-28T04:56:04.296Z,99439.84
2022-09-28T04:58:31.710Z,99453.28
2022-09-28T05:01:00.797Z,99454.31
2022-09-28T05:03:27.996Z,99459.44
2022-09-28T05:05:54.558Z,99469.44
2022-09-28T05:08:21.127Z,99460.66
2022-09-28T05:10:47.554Z,99466.97
2022-09-28T05:13:15.360Z,99464.31
2022-09-28T05:15:42.499Z,99465.31
2022-09-28T05:18:09.198Z,99475.53
2022-09-28T05:20:41.467Z,99477.38
2022-09-28T05:23:10.227Z,99475.94
2022-09-28T05:25:36.955Z,99480.25
2022-09-28T05:28:03.772Z,99467.81
2022-09-28T05:30:30.148Z,99476.59
2022-09-28T05:32:56.515Z,99469.25
2022-09-28T05:35:23.143Z,99475.75
2022-09-28T05:37:49.647Z,99480.03
2022-09-28T05:40:16.824Z,99477.16
2022-09-28T05:42:43.372Z,99473.06
2022-09-28T05:45:10.571Z,99471.22
2022-09-28T05:47:40.962Z,99469.81
2022-09-28T05:50:09.398Z,99472.28
2022-09-28T05:52:35.756Z,99453.94
2022-09-28T05:55:02.675Z,99468.03
2022-09-28T05:57:30.299Z,99467.81
2022-09-28T05:59:56.703Z,99459.41
2022-09-28T06:02:23.507Z,99462.06
2022-09-28T06:04:51.176Z,99460.63
2022-09-28T06:07:21.914Z,99461.84
2022-09-28T06:09:48.289Z,99461.59
2022-09-28T06:12:15.997Z,99471.56
2022-09-28T06:14:42.422Z,99469.69
2022-09-28T06:17:09.119Z,99473.56
2022-09-28T06:19:35.524Z,99482.91
2022-09-28T06:22:02.074Z,99494.34
2022-09-28T06:24:28.466Z,99473.94
2022-09-28T06:26:54.938Z,99479.59
2022-09-28T06:29:21.337Z,99472.72
2022-09-28T06:31:48.041Z,99482.50
2022-09-28T06:34:14.558Z,99491.13
2022-09-28T06:36:41.185Z,99487.47
2022-09-28T06:39:07.798Z,99488.13
2022-09-28T06:41:34.145Z,99487.91
2022-09-28T06:44:01.975Z,99494.00
2022-09-28T06:46:28.522Z,99486.28
2022-09-28T06:48:55.049Z,99494.66
2022-09-28T06:51:21.888Z,99498.34
2022-09-28T06:53:48.326Z,99501.81
2022-09-28T06:56:14.692Z,99496.28
2022-09-28T06:58:41.046Z,99498.56
2022-09-28T07:01:07.550Z,99510.25
2022-09-28T07:03:33.966Z,99508.94
2022-09-28T07:06:00.417Z,99503.41
2022-09-28T07:08:29.156Z,99511.59
2022-09-28T07:10:56.363Z,99512.56
2022-09-28T07:13:49.218Z,99516.47
2022-09-28T07:16:16.446Z,99514.00
2022-09-28T07:18:43.900Z,99510.69
2022-09-28T07:21:21.441Z,99508.34
2022-09-28T07:23:54.222Z,99509.72
2022-09-28T07:26:23.637Z,99516.00
2022-09-28T07:28:50.956Z,99516.75
2022-09-28T07:31:17.411Z,99518.34
2022-09-28T07:33:43.823Z,99517.25
2022-09-28T07:36:10.717Z,99519.91
2022-09-28T07:38:38.255Z,99525.31
2022-09-28T07:41:14.223Z,99529.91
2022-09-28T07:43:41.438Z,99523.50
2022-09-28T07:46:12.365Z,99526.69
2022-09-28T07:48:43.551Z,99515.13
2022-09-28T07:51:10.356Z,99524.16
2022-09-28T07:53:38.400Z,99517.50
2022-09-28T07:56:07.297Z,99524.06
2022-09-28T07:58:35.555Z,99522.19
2022-09-28T08:01:07.857Z,99533.03
2022-09-28T08:03:35.366Z,99528.00
2022-09-28T08:06:04.772Z,99525.91
2022-09-28T08:08:33.634Z,99518.50
2022-09-28T08:11:00.046Z,99539.50
2022-09-28T08:13:27.255Z,99541.59
2022-09-28T08:15:54.488Z,99553.47
2022-09-28T08:18:21.580Z,99541.59
2022-09-28T08:21:06.625Z,99532.03
2022-09-28T08:23:33.048Z,99531.34
2022-09-28T08:25:59.560Z,99536.13
2022-09-28T08:28:26.244Z,99523.97
2022-09-28T08:30:52.724Z,99539.97
2022-09-28T08:33:23.174Z,99543.81
2022-09-28T08:35:57.528Z,99549.22
2022-09-28T08:38:25.555Z,99542.44
2022-09-28T08:41:10.453Z,99552.78
2022-09-28T08:43:57.066Z,99560.53
2022-09-28T08:46:29.190Z,99549.19
2022-09-28T08:49:24.597Z,99561.28
2022-09-28T08:51:58.231Z,99561.97
2022-09-28T08:54:38.965Z,99578.03
2022-09-28T08:57:19.116Z,99574.50
2022-09-28T08:59:54.556Z,99587.66
2022-09-28T09:02:27.317Z,99565.00
2022-09-28T09:04:54.801Z,99598.19
2022-09-28T09:07:39.938Z,99597.22
2022-09-28T09:10:28.568Z,99582.78
2022-09-28T09:13:14.908Z,99585.91
2022-09-28T09:15:51.822Z,99580.63
2022-09-28T09:18:22.947Z,99569.16
2022-09-28T09:20:56.895Z,99559.69
2022-09-28T09:23:46.089Z,99551.00
2022-09-28T09:26:21.850Z,99553.38
2022-09-28T09:28:58.890Z,99560.13
2022-09-28T09:31:40.857Z,99555.03
2022-09-28T09:34:33.931Z,99550.16
2022-09-28T09:37:26.362Z,99559.69
2022-09-28T09:40:26.248Z,99523.38
2022-09-28T09:43:34.026Z,99534.16
2022-09-28T09:46:23.109Z,99552.66
2022-09-28T09:48:56.981Z,99545.91
2022-09-28T09:51:57.410Z,99561.84
2022-09-28T09:54:32.035Z,99533.38
2022-09-28T09:57:06.328Z,99559.69
2022-09-28T09:59:37.703Z,99552.94
2022-09-28T10:02:19.506Z,99538.97
2022-09-28T10:04:46.990Z,99555.25
2022-09-28T10:07:22.170Z,99561.81
2022-09-28T10:09:50.741Z,99564.81
2022-09-28T10:12:21.717Z,99547.25
2022-09-28T10:14:48.219Z,99572.41
2022-09-28T10:17:18.148Z,99576.94
2022-09-28T10:19:44.632Z,99561.28
2022-09-28T10:22:16.469Z,99568.28
2022-09-28T10:24:46.559Z,99579.78
2022-09-28T10:27:26.764Z,99582.13
2022-09-28T10:29:59.235Z,99572.03
2022-09-28T10:32:35.918Z,99590.25
2022-09-28T10:35:21.565Z,99595.03
2022-09-28T10:37:59.638Z,99598.16
2022-09-28T10:40:50.670Z,99592.88
2022-09-28T10:43:26.503Z,99611.03
2022-09-28T10:46:13.503Z,99614.44
2022-09-28T10:48:58.452Z,99619.22
2022-09-28T10:51:53.323Z,99616.59
2022-09-28T10:54:30.913Z,99624.84
2022-09-28T10:56:58.610Z,99616.63
2022-09-28T10:59:31.181Z,99613.94
2022-09-28T11:02:09.535Z,99602.19
2022-09-28T11:04:42.501Z,99612.19
2022-09-28T11:07:25.956Z,99618.75
2022-09-28T11:09:54.599Z,99613.31
2022-09-28T11:12:23.860Z,99616.56
2022-09-28T11:14:58.276Z,99600.94
2022-09-28T11:17:33.583Z,99603.97
2022-09-28T11:20:26.101Z,99598.69
2022-09-28T11:22:59.633Z,99574.75
2022-09-28T11:25:28.460Z,99599.22
2022-09-28T11:27:56.017Z,99596.81
2022-09-28T11:30:33.762Z,99599.38
2022-09-28T11:33:08.071Z,99602.84
2022-09-28T11:35:41.945Z,99595.22
2022-09-28T11:38:29.191Z,99603.06
2022-09-28T11:41:25.867Z,99600.47
2022-09-28T11:44:07.144Z,99602.19
2022-09-28T11:46:59.651Z,99581.28
2022-09-28T11:49:33.709Z,99598.91
2022-09-28T11:52:06.823Z,99592.53
2022-09-28T11:54:55.614Z,99588.94
2022-09-28T11:57:27.494Z,99592.31
2022-09-28T11:59:59.882Z,99590.25
2022-09-28T12:02:36.836Z,99600.34
2022-09-28T12:05:20.674Z,99596.72
2022-09-28T12:07:52.202Z,99606.38
2022-09-28T12:10:27.065Z,99602.34
2022-09-28T12:13:03.912Z,99606.63
2022-09-28T12:16:20.072Z,99605.28
2022-09-28T12:21:42.519Z,99614.53
2022-09-28T12:24:17.883Z,99614.03
2022-09-28T12:26:51.694Z,99612.50
2022-09-28T12:29:32.051Z,99609.25
2022-09-28T12:32:15.191Z,99599.00
2022-09-28T12:34:42.944Z,99612.25
2022-09-28T12:37:44.563Z,99608.50
2022-09-28T12:40:37.904Z,99609.31
2022-09-28T12:43:33.378Z,99607.63
2022-09-28T12:46:17.598Z,99607.63
2022-09-28T12:49:56.220Z,99598.75
2022-09-28T12:51:59.567Z,99608.91
2022-09-28T12:54:50.516Z,99596.78
2022-09-28T12:57:41.947Z,99604.84
2022-09-28T13:00:15.764Z,99601.34
2022-09-28T13:03:02.322Z,99598.59
2022-09-28T13:06:05.652Z,99601.69
2022-09-28T13:08:44.181Z,99595.13
2022-09-28T13:11:21.959Z,99584.06
2022-09-28T13:14:03.039Z,99594.59
2022-09-28T13:16:45.998Z,99594.34
2022-09-28T13:19:38.276Z,99597.22
2022-09-28T13:22:28.842Z,99608.50
2022-09-28T13:24:59.390Z,99595.50
2022-09-28T13:27:33.374Z,99589.84
2022-09-28T13:30:02.963Z,99610.06
2022-09-28T13:32:32.713Z,99610.44
2022-09-28T13:35:02.337Z,99615.72
2022-09-28T13:37:29.739Z,99618.25
2022-09-28T13:40:05.760Z,99618.44
2022-09-28T13:42:44.304Z,99625.50
2022-09-28T13:45:23.008Z,99625.91
2022-09-28T13:48:13.236Z,99626.31
2022-09-28T13:50:58.342Z,99632.88
2022-09-28T13:54:03.428Z,99639.69
2022-09-28T13:56:53.562Z,99638.53
2022-09-28T13:59:30.242Z,99646.84
2022-09-28T14:02:07.069Z,99630.78
2022-09-28T14:05:25.514Z,99649.28
2022-09-28T14:08:14.539Z,99645.31
2022-09-28T14:10:52.025Z,99644.75
2022-09-28T14:14:08.546Z,99644.59
2022-09-28T14:16:36.850Z,99644.84
2022-09-28T14:19:12.749Z,99645.75
2022-09-28T14:21:59.746Z,99633.13
2022-09-28T14:24:38.447Z,99642.66
2022-09-28T14:27:41.792Z,99642.66
2022-09-28T14:30:10.907Z,99646.72
2022-09-28T14:32:38.884Z,99641.94
2022-09-28T14:35:23.670Z,99644.13
2022-09-28T14:38:13.788Z,99636.81
2022-09-28T14:41:10.536Z,99646.59
2022-09-28T14:43:46.056Z,99638.03
2022-09-28T14:46:15.653Z,99639.09
2022-09-28T14:48:48.985Z,99641.44
2022-09-28T14:51:27.572Z,99649.28
2022-09-28T14:53:56.497Z,99641.34
2022-09-28T14:56:23.889Z,99645.34
2022-09-28T14:58:54.906Z,99646.41
2022-09-28T15:01:24.645Z,99652.50
2022-09-28T15:04:02.044Z,99645.84
2022-09-28T15:06:44.935Z,99644.28
2022-09-28T15:09:32.005Z,99655.59
2022-09-28T15:12:02.555Z,99653.97
2022-09-28T15:14:31.708Z,99656.09
2022-09-28T15:17:02.890Z,99662.59
2022-09-28T15:19:38.184Z,99659.91
2022-09-28T15:22:17.158Z,99655.25
2022-09-28T15:25:02.903Z,99664.38
2022-09-28T15:27:38.053Z,99657.28
2022-09-28T15:30:31.812Z,99662.44
2022-09-28T15:33:19.538Z,99672.00
2022-09-28T15:35:59.346Z,99636.00
2022-09-28T15:38:26.009Z,99663.19
2022-09-28T15:40:52.687Z,99667.75
2022-09-28T15:43:33.690Z,99668.72
2022-09-28T15:46:20.948Z,99670.00
2022-09-28T15:48:53.645Z,99665.84
2022-09-28T15:51:22.090Z,99665.03
2022-09-28T15:54:09.194Z,99665.25
2022-09-28T15:57:01.940Z,99655.75
2022-09-28T15:59:39.544Z,99655.41
2022-09-28T16:02:18.991Z,99668.00
2022-09-28T16:04:47.924Z,99674.97
2022-09-28T16:07:38.688Z,99680.72
2022-09-28T16:10:14.354Z,99683.75
2022-09-28T16:12:42.432Z,99684.13
2022-09-28T16:15:20.601Z,99697.97
2022-09-28T16:18:06.730Z,99694.63
2022-09-28T16:20:36.355Z,99697.31
2022-09-28T16:23:19.065Z,99691.38
2022-09-28T16:26:17.392Z,99692.16
2022-09-28T16:28:46.005Z,99699.28
2022-09-28T16:31:12.394Z,99703.31
2022-09-28T16:34:21.513Z,99713.59
2022-09-28T16:36:49.220Z,99714.53
2022-09-28T16:39:16.983Z,99718.25
2022-09-28T16:41:51.615Z,99720.00
2022-09-28T16:44:24.848Z,99730.97
2022-09-28T16:46:55.107Z,99706.03
2022-09-28T16:49:23.741Z,99733.66
2022-09-28T16:51:50.389Z,99726.31
2022-09-28T16:54:41.132Z,99728.03
2022-09-28T16:57:11.388Z,99737.59
2022-09-28T16:59:38.416Z,99739.91
2022-09-28T17:02:45.145Z,99737.13
2022-09-28T17:05:07.108Z,99731.63
2022-09-28T17:07:34.135Z,99748.03
2022-09-28T17:10:01.498Z,99750.69
2022-09-28T17:12:28.892Z,99749.81
2022-09-28T17:14:55.408Z,99737.22
2022-09-28T17:17:22.698Z,99734.13
2022-09-28T17:19:50.126Z,99742.50
2022-09-28T17:22:18.322Z,99748.19
2022-09-28T17:24:46.102Z,99747.28
2022-09-28T17:27:19.294Z,99748.09
2022-09-28T17:29:45.681Z,99747.03
2022-09-28T17:32:18.148Z,99749.94
2022-09-28T17:34:51.521Z,99751.19
2022-09-28T17:37:22.539Z,99749.28
2022-09-28T17:39:48.924Z,99754.13
2022-09-28T17:42:17.190Z,99759.09
2022-09-28T17:44:43.567Z,99756.88
2022-09-28T17:47:11.300Z,99764.88
2022-09-28T17:49:38.802Z,99754.03
2022-09-28T17:52:05.529Z,99759.47
2022-09-28T17:54:33.743Z,99754.44
2022-09-28T17:57:00.288Z,99751.84
2022-09-28T17:59:28.044Z,99755.94
2022-09-28T18:01:54.555Z,99764.03
2022-09-28T18:04:47.117Z,99754.91
2022-09-28T18:07:07.484Z,99758.47
2022-09-28T18:09:34.085Z,99751.63
2022-09-28T18:12:04.107Z,99754.53
2022-09-28T18:14:30.674Z,99752.44
2022-09-28T18:16:57.276Z,99760.47
2022-09-28T18:19:24.488Z,99760.63
2022-09-28T18:21:52.479Z,99764.81
2022-09-28T18:24:19.181Z,99765.63
2022-09-28T18:26:45.600Z,99757.81
2022-09-28T18:29:12.070Z,99764.81
2022-09-28T18:31:39.062Z,99761.31
2022-09-28T18:34:06.170Z,99750.09
2022-09-28T18:36:35.810Z,99759.47
2022-09-28T18:39:02.889Z,99752.91
2022-09-28T18:41:29.355Z,99759.53
2022-09-28T18:44:00.640Z,99758.09
2022-09-28T18:46:28.523Z,99766.28
2022-09-28T18:48:55.293Z,99763.81
2022-09-28T18:51:22.352Z,99754.59
2022-09-28T18:53:49.038Z,99750.47
2022-09-28T18:56:21.044Z,99735.41
2022-09-28T18:58:51.157Z,99758.31
2022-09-28T19:01:36.255Z,99761.13
2022-09-28T19:04:05.421Z,99733.50
2022-09-28T19:06:34.234Z,99753.50
2022-09-28T19:09:01.349Z,99747.78
2022-09-28T19:11:28.649Z,99743.69
2022-09-28T19:13:55.743Z,99747.47
2022-09-28T19:16:26.030Z,99741.38
2022-09-28T19:18:53.565Z,99751.09
2022-09-28T19:21:20.220Z,99754.38
2022-09-28T19:23:49.748Z,99759.47
2022-09-28T19:26:20.753Z,99751.09
2022-09-28T19:28:47.790Z,99748.16
2022-09-28T19:31:14.481Z,99751.44
2022-09-28T19:33:41.700Z,99748.59
2022-09-28T19:36:10.852Z,99757.13
2022-09-28T19:38:38.631Z,99757.38
2022-09-28T19:41:10.164Z,99749.91
2022-09-28T19:43:36.625Z,99757.28
2022-09-28T19:46:06.918Z,99759.78
2022-09-28T19:48:34.367Z,99763.09
2022-09-28T19:51:03.742Z,99756.63
2022-09-28T19:53:32.932Z,99753.78
2022-09-28T19:56:05.356Z,99761.50
2022-09-28T19:58:34.865Z,99736.22
2022-09-28T20:01:07.926Z,99768.66
2022-09-28T20:03:35.294Z,99774.19
2022-09-28T20:06:02.350Z,99767.91
2022-09-28T20:08:32.105Z,99779.31
2022-09-28T20:10:59.782Z,99774.03
2022-09-28T20:13:34.792Z,99783.31
2022-09-28T20:16:12.504Z,99784.72
2022-09-28T20:18:40.287Z,99788.59
2022-09-28T20:21:17.116Z,99791.03
2022-09-28T20:23:45.607Z,99789.19
2022-09-28T20:26:12.708Z,99784.59
2022-09-28T20:28:39.505Z,99790.81
2022-09-28T20:31:12.419Z,99764.06
2022-09-28T20:33:39.452Z,99790.44
2022-09-28T20:36:08.171Z,99790.00
2022-09-28T20:38:35.162Z,99793.66
2022-09-28T20:41:02.638Z,99787.94
2022-09-28T20:43:31.972Z,99792.44
2022-09-28T20:45:58.643Z,99792.44
2022-09-28T20:48:26.191Z,99786.09
2022-09-28T20:51:03.791Z,99780.38
2022-09-28T20:53:31.284Z,99778.47
2022-09-28T20:55:59.900Z,99779.88
2022-09-28T20:58:27.211Z,99775.63
2022-09-28T21:01:02.698Z,99761.97
2022-09-28T21:03:29.313Z,99781.03
2022-09-28T21:05:55.775Z,99774.13
2022-09-28T21:08:23.799Z,99768.41
2022-09-28T21:10:52.656Z,99771.56
2022-09-28T21:13:19.823Z,99783.50
2022-09-28T21:15:47.413Z,99780.84
2022-09-28T21:18:13.837Z,99771.44
2022-09-28T21:20:48.549Z,99760.19
2022-09-28T21:23:16.586Z,99775.66
2022-09-28T21:25:45.563Z,99775.41
2022-09-28T21:28:17.975Z,99770.13
2022-09-28T21:30:45.477Z,99780.41
2022-09-28T21:33:11.845Z,99777.16
2022-09-28T21:35:39.299Z,99771.88
2022-09-28T21:38:05.757Z,99772.56
2022-09-28T21:40:32.476Z,99775.84
2022-09-28T21:42:58.945Z,99785.69
2022-09-28T21:45:25.330Z,99778.72
2022-09-28T21:47:53.455Z,99787.31
2022-09-28T21:50:22.707Z,99786.31
2022-09-28T21:52:50.681Z,99787.34
2022-09-28T21:55:17.447Z,99798.63
2022-09-28T21:57:47.893Z,99790.84
2022-09-28T22:00:16.293Z,99789.59
2022-09-28T22:02:43.812Z,99792.28
2022-09-28T22:05:11.399Z,99800.28
2022-09-28T22:07:39.481Z,99799.06
2022-09-28T22:10:07.433Z,99807.09
2022-09-28T22:12:33.910Z,99801.97
2022-09-28T22:15:00.394Z,99811.59
2022-09-28T22:17:26.775Z,99812.22
2022-09-28T22:19:53.329Z,99814.28
2022-09-28T22:22:19.841Z,99803.22
2022-09-28T22:24:46.245Z,99803.03
2022-09-28T22:27:12.919Z,99805.09
2022-09-28T22:29:39.274Z,99803.03
2022-09-28T22:32:07.458Z,99817.59
2022-09-28T22:34:33.954Z,99814.72
2022-09-28T22:37:04.029Z,99804.88
2022-09-28T22:39:36.702Z,99813.09
2022-09-28T22:42:04.077Z,99811.03
2022-09-28T22:44:30.471Z,99810.66
2022-09-28T22:46:56.946Z,99811.06
2022-09-28T22:49:23.715Z,99812.47
2022-09-28T22:51:50.233Z,99822.50
2022-09-28T22:54:16.728Z,99817.19
2022-09-28T22:56:43.681Z,99814.31
2022-09-28T22:59:11.579Z,99823.75
2022-09-28T23:01:38.303Z,99833.56
2022-09-28T23:04:04.713Z,99827.22
2022-09-28T23:06:31.134Z,99826.63
2022-09-28T23:08:57.947Z,99832.97
2022-09-28T23:11:24.787Z,99833.56
2022-09-28T23:13:52.787Z,99814.31
2022-09-28T23:16:20.088Z,99834.81
2022-09-28T23:18:46.788Z,99832.34
2022-09-28T23:21:18.113Z,99834.81
2022-09-28T23:23:47.136Z,99823.97
2022-09-28T23:26:16.554Z,99826.22
2022-09-28T23:28:44.003Z,99828.25
2022-09-28T23:31:13.711Z,99834.00
2022-09-28T23:33:40.467Z,99828.66
2022-09-28T23:36:07.445Z,99827.63
2022-09-28T23:38:34.124Z,99824.75
2022-09-28T23:41:00.586Z,99821.69
2022-09-28T23:43:27.052Z,99824.97
2022-09-28T23:45:53.511Z,99826.22
2022-09-28T23:48:19.870Z,99829.69
2022-09-28T23:50:46.384Z,99822.09
2022-09-28T23:53:14.483Z,99820.69
2022-09-28T23:55:44.185Z,99822.94
2022-09-28T23:58:11.657Z,99824.75
